sensor_id;sensor_type;location;lat;lon;timestamp;pressure;altitude;pressure_sealevel;temperature;humidity
24620;BME280;12763;55.802;37.404;2024-02-16T00:00:46;101133.00;;;-5.26;100.00
24620;BME280;12763;55.802;37.404;2024-02-16T00:03:12;101133.47;;;-5.18;100.00
24620;BME280;12763;55.802;37.404;2024-02-16T00:05:38;101137.31;;;-5.22;100.00
24620;BME280;12763;55.802;37.404;2024-02-16T00:08:04;101129.44;;;-5.26;100.00
24620;BME280;12763;55.802;37.404;2024-02-16T00:10:30;101139.19;;;-5.41;100.00
24620;BME280;12763;55.802;37.404;2024-02-16T00:12:56;101126.44;;;-5.20;100.00
24620;BME280;12763;55.802;37.404;2024-02-16T00:15:22;101133.63;;;-5.21;100.00
24620;BME280;12763;55.802;37.404;2024-02-16T00:17:49;101125.09;;;-5.12;100.00
24620;BME280;12763;55.802;37.404;2024-02-16T00:20:15;101127.09;;;-5.00;100.00
24620;BME280;12763;55.802;37.404;2024-02-16T00:22:41;101124.75;;;-5.06;100.00
24620;BME280;12763;55.802;37.404;2024-02-16T00:25:07;101120.97;;;-5.19;100.00
24620;BME280;12763;55.802;37.404;2024-02-16T00:27:33;101117.50;;;-5.21;100.00
24620;BME280;12763;55.802;37.404;2024-02-16T00:29:58;101113.13;;;-5.23;100.00
24620;BME280;12763;55.802;37.404;2024-02-16T00:32:24;101116.72;;;-5.23;100.00
24620;BME280;12763;55.802;37.404;2024-02-16T00:34:55;101107.91;;;-5.26;100.00
24620;BME280;12763;55.802;37.404;2024-02-16T00:37:20;101114.00;;;-5.23;100.00
24620;BME280;12763;55.802;37.404;2024-02-16T00:39:46;101117.50;;;-5.38;100.00
24620;BME280;12763;55.802;37.404;2024-02-16T00:42:12;101121.31;;;-5.42;100.00
24620;BME280;12763;55.802;37.404;2024-02-16T00:44:38;101124.47;;;-5.17;100.00
24620;BME280;12763;55.802;37.404;2024-02-16T00:47:04;101124.75;;;-5.06;100.00
24620;BME280;12763;55.802;37.404;2024-02-16T00:49:35;101127.09;;;-5.00;100.00
24620;BME280;12763;55.802;37.404;2024-02-16T00:52:01;101124.69;;;-5.21;100.00
24620;BME280;12763;55.802;37.404;2024-02-16T00:54:30;101127.34;;;-5.04;100.00
24620;BME280;12763;55.802;37.404;2024-02-16T00:56:56;101122.88;;;-5.21;100.00
24620;BME280;12763;55.802;37.404;2024-02-16T00:59:26;101129.06;;;-5.36;100.00
24620;BME280;12763;55.802;37.404;2024-02-16T01:01:52;101117.66;;;-5.24;100.00
24620;BME280;12763;55.802;37.404;2024-02-16T01:04:18;101120.28;;;-5.22;100.00
24620;BME280;12763;55.802;37.404;2024-02-16T01:06:44;101118.56;;;-5.08;100.00
24620;BME280;12763;55.802;37.404;2024-02-16T01:09:10;101113.84;;;-5.20;100.00
24620;BME280;12763;55.802;37.404;2024-02-16T01:11:41;101117.19;;;-5.49;100.00
24620;BME280;12763;55.802;37.404;2024-02-16T01:14:07;101119.56;;;-5.26;100.00
24620;BME280;12763;55.802;37.404;2024-02-16T01:16:33;101124.59;;;-5.03;100.00
24620;BME280;12763;55.802;37.404;2024-02-16T01:18:59;101125.56;;;-4.88;100.00
24620;BME280;12763;55.802;37.404;2024-02-16T01:21:25;101126.94;;;-4.97;100.00
24620;BME280;12763;55.802;37.404;2024-02-16T01:23:51;101117.66;;;-4.91;100.00
24620;BME280;12763;55.802;37.404;2024-02-16T01:26:16;101114.34;;;-5.29;100.00
24620;BME280;12763;55.802;37.404;2024-02-16T01:28:42;101123.34;;;-5.13;100.00
24620;BME280;12763;55.802;37.404;2024-02-16T01:31:09;101120.31;;;-5.07;100.00
24620;BME280;12763;55.802;37.404;2024-02-16T01:33:38;101114.91;;;-5.22;100.00
24620;BME280;12763;55.802;37.404;2024-02-16T01:36:04;101106.59;;;-5.02;100.00
24620;BME280;12763;55.802;37.404;2024-02-16T01:38:30;101114.00;;;-5.06;100.00
24620;BME280;12763;55.802;37.404;2024-02-16T01:40:56;101108.19;;;-4.98;100.00
24620;BME280;12763;55.802;37.404;2024-02-16T01:43:22;101105.06;;;-4.91;100.00
24620;BME280;12763;55.802;37.404;2024-02-16T01:45:47;101103.44;;;-4.78;100.00
24620;BME280;12763;55.802;37.404;2024-02-16T01:48:16;101103.53;;;-4.79;100.00
24620;BME280;12763;55.802;37.404;2024-02-16T01:50:42;101105.38;;;-5.12;100.00
24620;BME280;12763;55.802;37.404;2024-02-16T01:53:11;101108.34;;;-5.01;100.00
24620;BME280;12763;55.802;37.404;2024-02-16T01:55:38;101100.22;;;-4.84;100.00
24620;BME280;12763;55.802;37.404;2024-02-16T01:58:04;101092.22;;;-4.86;100.00
24620;BME280;12763;55.802;37.404;2024-02-16T02:00:30;101098.28;;;-4.98;100.00
24620;BME280;12763;55.802;37.404;2024-02-16T02:02:56;101093.69;;;-4.96;100.00
24620;BME280;12763;55.802;37.404;2024-02-16T02:05:23;101099.34;;;-4.85;100.00
24620;BME280;12763;55.802;37.404;2024-02-16T02:07:49;101101.59;;;-4.93;100.00
24620;BME280;12763;55.802;37.404;2024-02-16T02:10:14;101107.06;;;-4.94;100.00
24620;BME280;12763;55.802;37.404;2024-02-16T02:12:42;101102.97;;;-5.01;100.00
24620;BME280;12763;55.802;37.404;2024-02-16T02:15:08;101098.91;;;-4.93;100.00
24620;BME280;12763;55.802;37.404;2024-02-16T02:17:35;101092.00;;;-4.81;100.00
24620;BME280;12763;55.802;37.404;2024-02-16T02:20:01;101086.03;;;-5.03;100.00
24620;BME280;12763;55.802;37.404;2024-02-16T02:22:28;101097.97;;;-4.92;100.00
24620;BME280;12763;55.802;37.404;2024-02-16T02:24:54;101097.97;;;-4.92;100.00
24620;BME280;12763;55.802;37.404;2024-02-16T02:27:23;101086.84;;;-4.86;100.00
24620;BME280;12763;55.802;37.404;2024-02-16T02:29:49;101092.22;;;-4.86;100.00
24620;BME280;12763;55.802;37.404;2024-02-16T02:32:15;101086.06;;;-4.88;100.00
24620;BME280;12763;55.802;37.404;2024-02-16T02:34:41;101089.47;;;-4.84;100.00
24620;BME280;12763;55.802;37.404;2024-02-16T02:37:07;101089.38;;;-4.83;100.00
24620;BME280;12763;55.802;37.404;2024-02-16T02:39:34;101097.31;;;-4.97;100.00
24620;BME280;12763;55.802;37.404;2024-02-16T02:42:00;101097.19;;;-5.11;100.00
24620;BME280;12763;55.802;37.404;2024-02-16T02:44:25;101100.53;;;-5.06;100.00
24620;BME280;12763;55.802;37.404;2024-02-16T02:46:51;101101.78;;;-4.96;100.00
24620;BME280;12763;55.802;37.404;2024-02-16T02:49:18;101108.97;;;-4.96;100.00
24620;BME280;12763;55.802;37.404;2024-02-16T02:51:44;101101.47;;;-5.07;100.00
24620;BME280;12763;55.802;37.404;2024-02-16T02:54:09;101105.06;;;-4.91;100.00
24620;BME280;12763;55.802;37.404;2024-02-16T02:56:35;101107.28;;;-4.82;100.00
24620;BME280;12763;55.802;37.404;2024-02-16T02:59:02;101111.34;;;-4.90;100.00
24620;BME280;12763;55.802;37.404;2024-02-16T03:01:28;101108.06;;;-4.80;100.00
24620;BME280;12763;55.802;37.404;2024-02-16T03:03:54;101111.88;;;-4.84;100.00
24620;BME280;12763;55.802;37.404;2024-02-16T03:06:20;101121.19;;;-4.73;100.00
24620;BME280;12763;55.802;37.404;2024-02-16T03:08:46;101113.28;;;-4.77;100.00
24620;BME280;12763;55.802;37.404;2024-02-16T03:11:12;101121.63;;;-4.65;100.00
24620;BME280;12763;55.802;37.404;2024-02-16T03:13:38;101119.09;;;-4.68;100.00
24620;BME280;12763;55.802;37.404;2024-02-16T03:16:04;101124.53;;;-4.86;100.00
24620;BME280;12763;55.802;37.404;2024-02-16T03:18:30;101132.63;;;-4.86;100.00
24620;BME280;12763;55.802;37.404;2024-02-16T03:20:57;101131.53;;;-4.66;100.00
24620;BME280;12763;55.802;37.404;2024-02-16T03:23:23;101134.50;;;-4.70;100.00
24620;BME280;12763;55.802;37.404;2024-02-16T03:25:49;101136.84;;;-4.64;100.00
24620;BME280;12763;55.802;37.404;2024-02-16T03:28:15;101139.78;;;-4.69;100.00
24620;BME280;12763;55.802;37.404;2024-02-16T03:30:41;101140.38;;;-4.80;100.00
24620;BME280;12763;55.802;37.404;2024-02-16T03:33:08;101137.06;;;-4.85;100.00
24620;BME280;12763;55.802;37.404;2024-02-16T03:35:35;101140.59;;;-4.67;100.00
24620;BME280;12763;55.802;37.404;2024-02-16T03:38:02;101139.63;;;-4.66;100.00
24620;BME280;12763;55.802;37.404;2024-02-16T03:40:28;101129.88;;;-4.68;100.00
24620;BME280;12763;55.802;37.404;2024-02-16T03:42:54;101123.22;;;-4.61;100.00
24620;BME280;12763;55.802;37.404;2024-02-16T03:45:20;101119.69;;;-4.79;100.00
24620;BME280;12763;55.802;37.404;2024-02-16T03:47:47;101118.78;;;-4.62;100.00
24620;BME280;12763;55.802;37.404;2024-02-16T03:50:18;101119.72;;;-4.63;100.00
24620;BME280;12763;55.802;37.404;2024-02-16T03:52:44;101116.41;;;-4.68;100.00
24620;BME280;12763;55.802;37.404;2024-02-16T03:55:10;101115.06;;;-4.93;100.00
24620;BME280;12763;55.802;37.404;2024-02-16T03:57:37;101110.94;;;-5.00;100.00
24620;BME280;12763;55.802;37.404;2024-02-16T04:00:03;101114.97;;;-4.91;100.00
24620;BME280;12763;55.802;37.404;2024-02-16T04:02:41;101114.56;;;-4.84;100.00
24620;BME280;12763;55.802;37.404;2024-02-16T04:05:07;101108.31;;;-4.84;100.00
24620;BME280;12763;55.802;37.404;2024-02-16T04:07:34;101112.63;;;-4.64;100.00
24620;BME280;12763;55.802;37.404;2024-02-16T04:10:00;101112.81;;;-4.85;100.00
24620;BME280;12763;55.802;37.404;2024-02-16T04:12:26;101099.34;;;-4.85;100.00
24620;BME280;12763;55.802;37.404;2024-02-16T04:14:52;101105.56;;;-5.00;100.00
24620;BME280;12763;55.802;37.404;2024-02-16T04:17:17;101106.13;;;-4.78;100.00
24620;BME280;12763;55.802;37.404;2024-02-16T04:19:44;101091.72;;;-4.77;100.00
24620;BME280;12763;55.802;37.404;2024-02-16T04:22:09;101099.81;;;-4.77;100.00
24620;BME280;12763;55.802;37.404;2024-02-16T04:24:35;101094.88;;;-4.68;100.00
24620;BME280;12763;55.802;37.404;2024-02-16T04:27:01;101096.38;;;-4.96;100.00
24620;BME280;12763;55.802;37.404;2024-02-16T04:29:27;101092.75;;;-4.95;100.00
24620;BME280;12763;55.802;37.404;2024-02-16T04:31:52;101092.47;;;-4.90;100.00
24620;BME280;12763;55.802;37.404;2024-02-16T04:34:18;101100.41;;;-4.71;100.00
24620;BME280;12763;55.802;37.404;2024-02-16T04:36:44;101108.91;;;-4.95;100.00
24620;BME280;12763;55.802;37.404;2024-02-16T04:39:10;101097.13;;;-4.77;100.00
24620;BME280;12763;55.802;37.404;2024-02-16T04:41:37;101104.41;;;-4.79;100.00
24620;BME280;12763;55.802;37.404;2024-02-16T04:44:04;101094.69;;;-4.81;100.00
24620;BME280;12763;55.802;37.404;2024-02-16T04:46:29;101089.75;;;-4.73;100.00
24620;BME280;12763;55.802;37.404;2024-02-16T04:48:55;101098.28;;;-4.98;100.00
24620;BME280;12763;55.802;37.404;2024-02-16T04:51:21;101089.88;;;-4.92;100.00
24620;BME280;12763;55.802;37.404;2024-02-16T04:53:47;101085.44;;;-4.93;100.00
24620;BME280;12763;55.802;37.404;2024-02-16T04:56:13;101081.81;;;-4.76;100.00
24620;BME280;12763;55.802;37.404;2024-02-16T04:58:43;101076.16;;;-4.71;100.00
24620;BME280;12763;55.802;37.404;2024-02-16T05:01:08;101089.03;;;-4.77;100.00
24620;BME280;12763;55.802;37.404;2024-02-16T05:03:34;101084.56;;;-4.93;100.00
24620;BME280;12763;55.802;37.404;2024-02-16T05:06:00;101086.28;;;-4.75;100.00
24620;BME280;12763;55.802;37.404;2024-02-16T05:08:26;101085.47;;;-4.77;100.00
24620;BME280;12763;55.802;37.404;2024-02-16T05:10:52;101084.13;;;-5.01;100.00
24620;BME280;12763;55.802;37.404;2024-02-16T05:13:18;101080.06;;;-4.93;100.00
24620;BME280;12763;55.802;37.404;2024-02-16T05:15:43;101081.00;;;-4.94;100.00
24620;BME280;12763;55.802;37.404;2024-02-16T05:18:09;101090.44;;;-5.02;100.00
24620;BME280;12763;55.802;37.404;2024-02-16T05:20:38;101091.00;;;-4.96;100.00
24620;BME280;12763;55.802;37.404;2024-02-16T05:23:04;101099.63;;;-4.73;100.00
24620;BME280;12763;55.802;37.404;2024-02-16T05:25:29;101103.91;;;-4.69;100.00
24620;BME280;12763;55.802;37.404;2024-02-16T05:27:55;101103.63;;;-4.81;100.00
24620;BME280;12763;55.802;37.404;2024-02-16T05:30:21;101107.28;;;-4.66;100.00
24620;BME280;12763;55.802;37.404;2024-02-16T05:32:47;101110.53;;;-4.59;100.00
24620;BME280;12763;55.802;37.404;2024-02-16T05:35:14;101123.72;;;-4.55;100.00
24620;BME280;12763;55.802;37.404;2024-02-16T05:37:44;101128.97;;;-4.36;100.00
24620;BME280;12763;55.802;37.404;2024-02-16T05:40:13;101137.25;;;-4.39;100.00
24620;BME280;12763;55.802;37.404;2024-02-16T05:42:48;101141.69;;;-4.23;100.00
24620;BME280;12763;55.802;37.404;2024-02-16T05:45:14;101145.50;;;-4.27;100.00
24620;BME280;12763;55.802;37.404;2024-02-16T05:47:41;101143.41;;;-4.37;100.00
24620;BME280;12763;55.802;37.404;2024-02-16T05:50:08;101142.03;;;-4.29;100.00
24620;BME280;12763;55.802;37.404;2024-02-16T05:52:35;101139.06;;;-4.24;100.00
24620;BME280;12763;55.802;37.404;2024-02-16T05:55:01;101138.38;;;-4.12;100.00
24620;BME280;12763;55.802;37.404;2024-02-16T05:57:27;101137.94;;;-4.20;100.00
24620;BME280;12763;55.802;37.404;2024-02-16T05:59:53;101136.78;;;-4.16;100.00
24620;BME280;12763;55.802;37.404;2024-02-16T06:02:18;101137.94;;;-4.04;100.00
24620;BME280;12763;55.802;37.404;2024-02-16T06:04:44;101138.44;;;-4.13;100.00
24620;BME280;12763;55.802;37.404;2024-02-16T06:07:10;101136.28;;;-4.07;100.00
24620;BME280;12763;55.802;37.404;2024-02-16T06:09:36;101137.69;;;-4.31;100.00
24620;BME280;12763;55.802;37.404;2024-02-16T06:12:04;101137.31;;;-4.25;100.00
24620;BME280;12763;55.802;37.404;2024-02-16T06:14:31;101137.50;;;-4.28;100.00
24620;BME280;12763;55.802;37.404;2024-02-16T06:16:57;101142.00;;;-4.13;100.00
24620;BME280;12763;55.802;37.404;2024-02-16T06:19:23;101135.69;;;-4.12;100.00
24620;BME280;12763;55.802;37.404;2024-02-16T06:21:49;101142.34;;;-4.19;100.00
24620;BME280;12763;55.802;37.404;2024-02-16T06:24:15;101145.66;;;-4.14;100.00
24620;BME280;12763;55.802;37.404;2024-02-16T06:26:40;101146.56;;;-3.98;100.00
24620;BME280;12763;55.802;37.404;2024-02-16T06:29:06;101145.41;;;-3.94;100.00
24620;BME280;12763;55.802;37.404;2024-02-16T06:31:32;101144.94;;;-3.86;100.00
24620;BME280;12763;55.802;37.404;2024-02-16T06:33:58;101140.59;;;-3.89;100.00
24620;BME280;12763;55.802;37.404;2024-02-16T06:36:24;101144.28;;;-3.90;100.00
24620;BME280;12763;55.802;37.404;2024-02-16T06:38:49;101144.44;;;-4.08;100.00
24620;BME280;12763;55.802;37.404;2024-02-16T06:41:17;101142.38;;;-4.03;100.00
24620;BME280;12763;55.802;37.404;2024-02-16T06:43:42;101153.16;;;-4.19;100.00
24620;BME280;12763;55.802;37.404;2024-02-16T06:46:08;101142.19;;;-4.16;100.00
24620;BME280;12763;55.802;37.404;2024-02-16T06:48:34;101145.91;;;-4.03;100.00
24620;BME280;12763;55.802;37.404;2024-02-16T06:51:00;101151.06;;;-3.98;100.00
24620;BME280;12763;55.802;37.404;2024-02-16T06:53:26;101140.81;;;-4.07;100.00
24620;BME280;12763;55.802;37.404;2024-02-16T06:55:52;101139.56;;;-3.86;100.00
24620;BME280;12763;55.802;37.404;2024-02-16T06:58:17;101128.94;;;-3.74;100.00
24620;BME280;12763;55.802;37.404;2024-02-16T07:00:43;101129.09;;;-3.77;100.00
24620;BME280;12763;55.802;37.404;2024-02-16T07:03:09;101127.53;;;-3.81;100.00
24620;BME280;12763;55.802;37.404;2024-02-16T07:05:35;101127.53;;;-3.65;100.00
24620;BME280;12763;55.802;37.404;2024-02-16T07:08:01;101130.22;;;-3.65;100.00
24620;BME280;12763;55.802;37.404;2024-02-16T07:10:27;101132.81;;;-3.64;100.00
24620;BME280;12763;55.802;37.404;2024-02-16T07:12:53;101128.75;;;-3.71;100.00
24620;BME280;12763;55.802;37.404;2024-02-16T07:15:19;101128.59;;;-3.68;100.00
24620;BME280;12763;55.802;37.404;2024-02-16T07:17:45;101124.72;;;-3.64;100.00
24620;BME280;12763;55.802;37.404;2024-02-16T07:20:11;101124.09;;;-3.53;100.00
24620;BME280;12763;55.802;37.404;2024-02-16T07:22:41;101123.41;;;-3.57;100.00
24620;BME280;12763;55.802;37.404;2024-02-16T07:25:08;101123.53;;;-3.74;100.00
24620;BME280;12763;55.802;37.404;2024-02-16T07:27:34;101131.16;;;-3.66;100.00
24620;BME280;12763;55.802;37.404;2024-02-16T07:30:00;101137.91;;;-3.43;100.00
24620;BME280;12763;55.802;37.404;2024-02-16T07:32:25;101127.94;;;-3.57;100.00
24620;BME280;12763;55.802;37.404;2024-02-16T07:34:51;101133.94;;;-3.52;100.00
24620;BME280;12763;55.802;37.404;2024-02-16T07:37:17;101134.44;;;-3.31;100.00
24620;BME280;12763;55.802;37.404;2024-02-16T07:39:43;101145.09;;;-3.14;100.00
24620;BME280;12763;55.802;37.404;2024-02-16T07:42:09;101129.66;;;-3.26;100.00
24620;BME280;12763;55.802;37.404;2024-02-16T07:44:36;101144.94;;;-3.11;100.00
24620;BME280;12763;55.802;37.404;2024-02-16T07:47:02;101146.63;;;-3.24;99.96
24620;BME280;12763;55.802;37.404;2024-02-16T07:49:28;101148.00;;;-3.47;100.00
24620;BME280;12763;55.802;37.404;2024-02-16T07:51:54;101151.44;;;-3.29;100.00
24620;BME280;12763;55.802;37.404;2024-02-16T07:54:21;101152.03;;;-3.24;100.00
24620;BME280;12763;55.802;37.404;2024-02-16T07:56:47;101158.16;;;-3.36;100.00
24620;BME280;12763;55.802;37.404;2024-02-16T07:59:13;101158.50;;;-3.27;100.00
24620;BME280;12763;55.802;37.404;2024-02-16T08:01:39;101161.66;;;-3.34;100.00
24620;BME280;12763;55.802;37.404;2024-02-16T08:04:06;101149.28;;;-3.68;100.00
24620;BME280;12763;55.802;37.404;2024-02-16T08:06:31;101150.81;;;-3.48;100.00
24620;BME280;12763;55.802;37.404;2024-02-16T08:08:58;101155.22;;;-3.47;100.00
24620;BME280;12763;55.802;37.404;2024-02-16T08:11:23;101160.50;;;-3.30;100.00
24620;BME280;12763;55.802;37.404;2024-02-16T08:13:49;101159.19;;;-3.23;100.00
24620;BME280;12763;55.802;37.404;2024-02-16T08:16:15;101164.38;;;-3.34;100.00
24620;BME280;12763;55.802;37.404;2024-02-16T08:18:43;101159.31;;;-3.40;100.00
24620;BME280;12763;55.802;37.404;2024-02-16T08:21:09;101151.69;;;-3.18;100.00
24620;BME280;12763;55.802;37.404;2024-02-16T08:23:35;101138.50;;;-2.80;100.00
24620;BME280;12763;55.802;37.404;2024-02-16T08:26:03;101136.38;;;-2.75;98.87
24620;BME280;12763;55.802;37.404;2024-02-16T08:28:29;101136.56;;;-2.64;98.65
24620;BME280;12763;55.802;37.404;2024-02-16T08:30:54;101132.44;;;-2.56;98.09
24620;BME280;12763;55.802;37.404;2024-02-16T08:33:20;101143.63;;;-2.48;97.55
24620;BME280;12763;55.802;37.404;2024-02-16T08:35:46;101145.44;;;-2.48;97.53
24620;BME280;12763;55.802;37.404;2024-02-16T08:38:12;101144.97;;;-2.83;98.01
24620;BME280;12763;55.802;37.404;2024-02-16T08:40:39;101149.59;;;-2.99;99.28
24620;BME280;12763;55.802;37.404;2024-02-16T08:43:05;101156.34;;;-2.92;99.73
24620;BME280;12763;55.802;37.404;2024-02-16T08:45:33;101163.06;;;-3.13;99.08
24620;BME280;12763;55.802;37.404;2024-02-16T08:47:59;101162.41;;;-3.03;99.47
24620;BME280;12763;55.802;37.404;2024-02-16T08:50:28;101158.16;;;-2.92;99.09
24620;BME280;12763;55.802;37.404;2024-02-16T08:52:53;101159.84;;;-2.90;99.84
24620;BME280;12763;55.802;37.404;2024-02-16T08:55:20;101162.34;;;-2.73;99.85
24620;BME280;12763;55.802;37.404;2024-02-16T08:57:45;101167.38;;;-2.67;98.45
24620;BME280;12763;55.802;37.404;2024-02-16T09:00:12;101164.19;;;-2.45;98.23
24620;BME280;12763;55.802;37.404;2024-02-16T09:02:38;101171.84;;;-2.52;97.53
24620;BME280;12763;55.802;37.404;2024-02-16T09:05:04;101165.44;;;-2.65;97.28
24620;BME280;12763;55.802;37.404;2024-02-16T09:07:39;101163.59;;;-2.78;98.45
24620;BME280;12763;55.802;37.404;2024-02-16T09:10:17;101160.59;;;-2.46;96.96
24620;BME280;12763;55.802;37.404;2024-02-16T09:12:43;101148.44;;;-2.24;96.57
24620;BME280;12763;55.802;37.404;2024-02-16T09:15:09;101159.81;;;-2.05;95.57
24620;BME280;12763;55.802;37.404;2024-02-16T09:17:35;101150.84;;;-2.48;95.32
24620;BME280;12763;55.802;37.404;2024-02-16T09:20:00;101137.78;;;-1.99;95.62
24620;BME280;12763;55.802;37.404;2024-02-16T09:22:29;101138.53;;;-1.70;93.85
24620;BME280;12763;55.802;37.404;2024-02-16T09:24:55;101136.84;;;-1.59;93.30
24620;BME280;12763;55.802;37.404;2024-02-16T09:27:26;101140.66;;;-1.49;92.06
24620;BME280;12763;55.802;37.404;2024-02-16T09:29:55;101131.97;;;-1.54;92.15
24620;BME280;12763;55.802;37.404;2024-02-16T09:32:29;101129.66;;;-1.72;92.62
24620;BME280;12763;55.802;37.404;2024-02-16T09:35:07;101125.47;;;-1.91;92.33
24620;BME280;12763;55.802;37.404;2024-02-16T09:37:51;101135.16;;;-2.01;94.12
24620;BME280;12763;55.802;37.404;2024-02-16T09:40:24;101120.03;;;-1.64;93.49
24620;BME280;12763;55.802;37.404;2024-02-16T09:42:50;101113.63;;;-1.63;93.02
24620;BME280;12763;55.802;37.404;2024-02-16T09:45:16;101113.25;;;-1.84;92.50
24620;BME280;12763;55.802;37.404;2024-02-16T09:47:45;101111.81;;;-1.89;93.40
24620;BME280;12763;55.802;37.404;2024-02-16T09:50:15;101110.75;;;-2.13;94.40
24620;BME280;12763;55.802;37.404;2024-02-16T09:52:47;101092.25;;;-2.07;95.02
24620;BME280;12763;55.802;37.404;2024-02-16T09:55:14;101095.56;;;-2.02;95.09
24620;BME280;12763;55.802;37.404;2024-02-16T09:57:41;101104.22;;;-1.97;94.71
24620;BME280;12763;55.802;37.404;2024-02-16T10:00:25;101098.25;;;-2.02;95.06
24620;BME280;12763;55.802;37.404;2024-02-16T10:02:59;101102.00;;;-2.04;95.23
24620;BME280;12763;55.802;37.404;2024-02-16T10:09:24;101102.22;;;-2.07;96.47
24620;BME280;12763;55.802;37.404;2024-02-16T10:11:50;101097.66;;;-2.07;96.60
24620;BME280;12763;55.802;37.404;2024-02-16T10:14:22;101095.06;;;-2.08;95.10
24620;BME280;12763;55.802;37.404;2024-02-16T10:16:48;101095.78;;;-1.92;95.98
24620;BME280;12763;55.802;37.404;2024-02-16T10:19:24;101089.38;;;-1.77;94.18
24620;BME280;12763;55.802;37.404;2024-02-16T10:21:50;101095.75;;;-1.78;94.25
24620;BME280;12763;55.802;37.404;2024-02-16T10:24:21;101085.25;;;-1.70;93.93
24620;BME280;12763;55.802;37.404;2024-02-16T10:26:47;101088.38;;;-1.76;93.88
24620;BME280;12763;55.802;37.404;2024-02-16T10:29:17;101093.03;;;-1.78;95.00
24620;BME280;12763;55.802;37.404;2024-02-16T10:31:45;101101.41;;;-1.95;94.83
24620;BME280;12763;55.802;37.404;2024-02-16T10:34:11;101085.56;;;-2.01;94.46
24620;BME280;12763;55.802;37.404;2024-02-16T10:36:38;101086.50;;;-1.88;94.43
24620;BME280;12763;55.802;37.404;2024-02-16T10:39:06;101077.88;;;-2.07;95.06
24620;BME280;12763;55.802;37.404;2024-02-16T10:41:35;101095.19;;;-1.83;96.34
24620;BME280;12763;55.802;37.404;2024-02-16T10:44:02;101094.97;;;-1.80;94.54
24620;BME280;12763;55.802;37.404;2024-02-16T10:46:29;101095.06;;;-1.55;93.64
24620;BME280;12763;55.802;37.404;2024-02-16T10:48:56;101084.53;;;-1.59;92.83
24620;BME280;12763;55.802;37.404;2024-02-16T10:51:31;101089.19;;;-1.61;92.72
24620;BME280;12763;55.802;37.404;2024-02-16T10:54:01;101089.72;;;-1.69;93.46
24620;BME280;12763;55.802;37.404;2024-02-16T10:56:37;101100.44;;;-1.67;93.40
24620;BME280;12763;55.802;37.404;2024-02-16T10:59:08;101086.63;;;-1.38;92.87
24620;BME280;12763;55.802;37.404;2024-02-16T11:01:42;101091.56;;;-1.57;91.59
24620;BME280;12763;55.802;37.404;2024-02-16T11:04:16;101100.75;;;-1.33;92.08
24620;BME280;12763;55.802;37.404;2024-02-16T11:06:55;101089.25;;;-1.24;92.03
24620;BME280;12763;55.802;37.404;2024-02-16T11:09:35;101092.84;;;-1.36;91.37
24620;BME280;12763;55.802;37.404;2024-02-16T11:12:03;101086.72;;;-1.52;92.15
24620;BME280;12763;55.802;37.404;2024-02-16T11:14:36;101088.78;;;-1.43;93.53
24620;BME280;12763;55.802;37.404;2024-02-16T11:17:08;101102.72;;;-1.61;92.88
24620;BME280;12763;55.802;37.404;2024-02-16T11:19:35;101100.91;;;-1.61;93.54
24620;BME280;12763;55.802;37.404;2024-02-16T11:22:05;101098.75;;;-1.43;92.93
24620;BME280;12763;55.802;37.404;2024-02-16T11:24:43;101093.53;;;-1.46;93.25
24620;BME280;12763;55.802;37.404;2024-02-16T11:27:11;101097.13;;;-1.46;92.54
24620;BME280;12763;55.802;37.404;2024-02-16T11:29:38;101089.13;;;-1.35;93.19
24620;BME280;12763;55.802;37.404;2024-02-16T11:32:05;101082.53;;;-1.18;92.68
24620;BME280;12763;55.802;37.404;2024-02-16T11:34:32;101075.84;;;-1.00;91.38
24620;BME280;12763;55.802;37.404;2024-02-16T11:37:00;101077.91;;;-1.03;90.85
24620;BME280;12763;55.802;37.404;2024-02-16T11:39:27;101077.34;;;-1.21;91.09
24620;BME280;12763;55.802;37.404;2024-02-16T11:42:05;101081.53;;;-1.42;92.30
24620;BME280;12763;55.802;37.404;2024-02-16T11:44:32;101079.84;;;-1.18;91.40
24620;BME280;12763;55.802;37.404;2024-02-16T11:46:59;101080.50;;;-1.14;92.10
24620;BME280;12763;55.802;37.404;2024-02-16T11:49:25;101076.38;;;-0.82;93.12
24620;BME280;12763;55.802;37.404;2024-02-16T11:51:51;101085.00;;;-0.39;91.87
24620;BME280;12763;55.802;37.404;2024-02-16T11:54:17;101069.25;;;-0.47;89.94
24620;BME280;12763;55.802;37.404;2024-02-16T11:56:47;101084.38;;;-0.68;88.36
24620;BME280;12763;55.802;37.404;2024-02-16T11:59:17;101085.31;;;-0.44;89.72
24620;BME280;12763;55.802;37.404;2024-02-16T12:01:56;101088.75;;;-0.17;88.65
24620;BME280;12763;55.802;37.404;2024-02-16T12:04:29;101083.63;;;-0.09;88.21
24620;BME280;12763;55.802;37.404;2024-02-16T12:07:22;101087.59;;;-0.02;85.02
24620;BME280;12763;55.802;37.404;2024-02-16T12:09:57;101086.19;;;-0.43;87.45
24620;BME280;12763;55.802;37.404;2024-02-16T12:12:35;101087.88;;;-0.30;86.38
24620;BME280;12763;55.802;37.404;2024-02-16T12:15:01;101092.13;;;-0.26;84.74
24620;BME280;12763;55.802;37.404;2024-02-16T12:17:27;101096.38;;;-0.47;84.63
24620;BME280;12763;55.802;37.404;2024-02-16T12:19:54;101094.25;;;-0.67;85.13
24620;BME280;12763;55.802;37.404;2024-02-16T12:22:20;101087.13;;;-0.81;85.86
24620;BME280;12763;55.802;37.404;2024-02-16T12:24:50;101087.09;;;-0.68;85.96
24620;BME280;12763;55.802;37.404;2024-02-16T12:27:17;101091.91;;;-0.97;86.59
24620;BME280;12763;55.802;37.404;2024-02-16T12:29:43;101091.25;;;-1.00;87.87
24620;BME280;12763;55.802;37.404;2024-02-16T12:32:09;101095.34;;;-1.07;86.84
24620;BME280;12763;55.802;37.404;2024-02-16T12:34:37;101092.94;;;-0.99;87.37
24620;BME280;12763;55.802;37.404;2024-02-16T12:37:07;101086.03;;;-1.03;87.30